sensor_id;sensor_type;location;lat;lon;timestamp;pressure;altitude;pressure_sealevel;temperature;humidity
56142;BME280;42018;48.588;10.836;2023-04-26T00:00:17;96725.25;;;7.66;79.70
56142;BME280;42018;48.588;10.836;2023-04-26T00:03:02;96727.81;;;7.61;79.93
56142;BME280;42018;48.588;10.836;2023-04-26T00:05:48;96723.09;;;7.63;79.36
56142;BME280;42018;48.588;10.836;2023-04-26T00:08:35;96717.69;;;7.53;79.12
56142;BME280;42018;48.588;10.836;2023-04-26T00:11:20;96722.72;;;7.32;80.54
56142;BME280;42018;48.588;10.836;2023-04-26T00:14:06;96714.63;;;7.39;80.23
56142;BME280;42018;48.588;10.836;2023-04-26T00:16:51;96722.19;;;7.30;80.52
56142;BME280;42018;48.588;10.836;2023-04-26T00:19:37;96717.22;;;7.34;80.50
56142;BME280;42018;48.588;10.836;2023-04-26T00:22:24;96723.09;;;7.41;80.67
56142;BME280;42018;48.588;10.836;2023-04-26T00:25:10;96718.94;;;7.23;81.00
56142;BME280;42018;48.588;10.836;2023-04-26T00:27:56;96722.66;;;7.27;81.18
56142;BME280;42018;48.588;10.836;2023-04-26T00:30:41;96728.09;;;6.99;81.87
56142;BME280;42018;48.588;10.836;2023-04-26T00:33:31;96729.13;;;6.81;83.10
56142;BME280;42018;48.588;10.836;2023-04-26T00:36:17;96723.13;;;7.02;82.36
56142;BME280;42018;48.588;10.836;2023-04-26T00:39:03;96720.97;;;6.99;81.86
56142;BME280;42018;48.588;10.836;2023-04-26T00:41:48;96731.34;;;7.06;81.58
56142;BME280;42018;48.588;10.836;2023-04-26T00:44:34;96722.22;;;7.13;81.53
56142;BME280;42018;48.588;10.836;2023-04-26T00:47:20;96719.41;;;7.20;81.81
56142;BME280;42018;48.588;10.836;2023-04-26T00:50:06;96720.38;;;7.36;81.55
56142;BME280;42018;48.588;10.836;2023-04-26T00:52:52;96717.69;;;7.31;81.16
56142;BME280;42018;48.588;10.836;2023-04-26T00:55:38;96723.19;;;7.29;80.42
56142;BME280;42018;48.588;10.836;2023-04-26T00:58:24;96722.69;;;7.10;81.26
56142;BME280;42018;48.588;10.836;2023-04-26T01:01:10;96730.09;;;6.91;82.36
56142;BME280;42018;48.588;10.836;2023-04-26T01:03:57;96734.91;;;6.44;84.65
56142;BME280;42018;48.588;10.836;2023-04-26T01:06:43;96735.28;;;6.53;85.26
56142;BME280;42018;48.588;10.836;2023-04-26T01:09:31;96728.69;;;6.33;85.67
56142;BME280;42018;48.588;10.836;2023-04-26T01:12:17;96732.31;;;6.32;86.44
56142;BME280;42018;48.588;10.836;2023-04-26T01:15:04;96728.50;;;6.57;85.05
56142;BME280;42018;48.588;10.836;2023-04-26T01:17:49;96722.28;;;6.80;83.53
56142;BME280;42018;48.588;10.836;2023-04-26T01:20:36;96722.19;;;6.91;82.64
56142;BME280;42018;48.588;10.836;2023-04-26T01:23:22;96732.94;;;7.07;81.79
56142;BME280;42018;48.588;10.836;2023-04-26T01:26:07;96730.13;;;7.13;81.28
56142;BME280;42018;48.588;10.836;2023-04-26T01:28:52;96733.09;;;7.00;81.23
56142;BME280;42018;48.588;10.836;2023-04-26T01:31:38;96733.41;;;7.04;81.19
56142;BME280;42018;48.588;10.836;2023-04-26T01:34:23;96734.72;;;6.84;81.71
56142;BME280;42018;48.588;10.836;2023-04-26T01:37:08;96747.16;;;6.89;81.69
56142;BME280;42018;48.588;10.836;2023-04-26T01:39:54;96751.47;;;6.61;82.72
56142;BME280;42018;48.588;10.836;2023-04-26T01:42:40;96746.38;;;6.71;82.56
56142;BME280;42018;48.588;10.836;2023-04-26T01:45:25;96742.38;;;6.86;82.28
56142;BME280;42018;48.588;10.836;2023-04-26T01:48:11;96755.00;;;6.84;82.63
56142;BME280;42018;48.588;10.836;2023-04-26T01:50:57;96747.16;;;6.89;81.95
56142;BME280;42018;48.588;10.836;2023-04-26T01:53:42;96752.44;;;6.89;82.20
56142;BME280;42018;48.588;10.836;2023-04-26T01:56:27;96747.94;;;6.89;81.86
56142;BME280;42018;48.588;10.836;2023-04-26T01:59:13;96749.91;;;6.77;82.24
56142;BME280;42018;48.588;10.836;2023-04-26T02:01:58;96749.72;;;6.84;82.26
56142;BME280;42018;48.588;10.836;2023-04-26T02:04:44;96752.84;;;6.64;83.05
56142;BME280;42018;48.588;10.836;2023-04-26T02:07:29;96752.63;;;6.65;82.93
56142;BME280;42018;48.588;10.836;2023-04-26T02:10:14;96751.56;;;6.50;83.64
56142;BME280;42018;48.588;10.836;2023-04-26T02:13:00;96745.41;;;6.61;82.63
56142;BME280;42018;48.588;10.836;2023-04-26T02:15:46;96748.84;;;6.61;82.95
56142;BME280;42018;48.588;10.836;2023-04-26T02:18:32;96752.84;;;6.64;83.06
56142;BME280;42018;48.588;10.836;2023-04-26T02:21:18;96739.19;;;6.67;82.62
56142;BME280;42018;48.588;10.836;2023-04-26T02:24:04;96741.75;;;6.79;82.34
56142;BME280;42018;48.588;10.836;2023-04-26T02:26:50;96746.53;;;6.82;82.22
56142;BME280;42018;48.588;10.836;2023-04-26T02:29:36;96749.00;;;6.71;82.49
56142;BME280;42018;48.588;10.836;2023-04-26T02:32:22;96755.31;;;6.70;82.39
56142;BME280;42018;48.588;10.836;2023-04-26T02:35:07;96753.88;;;6.63;83.26
56142;BME280;42018;48.588;10.836;2023-04-26T02:37:53;96743.19;;;6.69;82.78
56142;BME280;42018;48.588;10.836;2023-04-26T02:40:39;96746.47;;;6.60;82.91
56142;BME280;42018;48.588;10.836;2023-04-26T02:43:24;96739.03;;;6.57;83.20
56142;BME280;42018;48.588;10.836;2023-04-26T02:46:10;96739.19;;;6.67;82.73
56142;BME280;42018;48.588;10.836;2023-04-26T02:48:55;96740.00;;;6.67;82.95
56142;BME280;42018;48.588;10.836;2023-04-26T02:51:41;96729.94;;;6.81;82.44
56142;BME280;42018;48.588;10.836;2023-04-26T02:54:26;96729.00;;;6.70;81.64
56142;BME280;42018;48.588;10.836;2023-04-26T02:57:11;96730.50;;;6.66;81.75
56142;BME280;42018;48.588;10.836;2023-04-26T02:59:57;96728.97;;;6.54;81.71
56142;BME280;42018;48.588;10.836;2023-04-26T03:02:43;96743.84;;;6.77;81.41
56142;BME280;42018;48.588;10.836;2023-04-26T03:05:28;96747.25;;;6.77;80.85
56142;BME280;42018;48.588;10.836;2023-04-26T03:08:13;96737.63;;;6.66;80.95
56142;BME280;42018;48.588;10.836;2023-04-26T03:10:59;96738.16;;;6.68;81.49
56142;BME280;42018;48.588;10.836;2023-04-26T03:13:45;96739.19;;;6.84;80.54
56142;BME280;42018;48.588;10.836;2023-04-26T03:16:40;96746.22;;;6.61;79.65
56142;BME280;42018;48.588;10.836;2023-04-26T03:19:25;96750.22;;;6.64;80.64
56142;BME280;42018;48.588;10.836;2023-04-26T03:22:12;96744.78;;;6.54;81.00
56142;BME280;42018;48.588;10.836;2023-04-26T03:25:00;96745.66;;;6.59;80.56
56142;BME280;42018;48.588;10.836;2023-04-26T03:27:45;96749.34;;;6.58;81.03
56142;BME280;42018;48.588;10.836;2023-04-26T03:30:31;96743.66;;;6.66;80.89
56142;BME280;42018;48.588;10.836;2023-04-26T03:33:16;96747.81;;;6.62;80.70
56142;BME280;42018;48.588;10.836;2023-04-26T03:36:01;96746.06;;;6.68;80.90
56142;BME280;42018;48.588;10.836;2023-04-26T03:38:47;96758.34;;;6.79;80.22
56142;BME280;42018;48.588;10.836;2023-04-26T03:41:32;96760.91;;;6.74;80.37
56142;BME280;42018;48.588;10.836;2023-04-26T03:44:20;96761.00;;;6.62;80.12
56142;BME280;42018;48.588;10.836;2023-04-26T03:47:06;96764.91;;;6.77;79.73
56142;BME280;42018;48.588;10.836;2023-04-26T03:49:51;96766.94;;;6.58;80.11
56142;BME280;42018;48.588;10.836;2023-04-26T03:52:36;96761.38;;;6.54;80.31
56142;BME280;42018;48.588;10.836;2023-04-26T03:55:22;96754.81;;;6.40;80.09
56142;BME280;42018;48.588;10.836;2023-04-26T03:58:07;96762.41;;;6.53;80.24
56142;BME280;42018;48.588;10.836;2023-04-26T04:00:56;96760.41;;;6.60;78.89
56142;BME280;42018;48.588;10.836;2023-04-26T04:03:42;96766.13;;;6.23;79.91
56142;BME280;42018;48.588;10.836;2023-04-26T04:06:27;96767.50;;;6.43;79.28
56142;BME280;42018;48.588;10.836;2023-04-26T04:09:13;96764.06;;;6.42;79.23
56142;BME280;42018;48.588;10.836;2023-04-26T04:11:58;96774.84;;;6.58;78.75
56142;BME280;42018;48.588;10.836;2023-04-26T04:14:43;96772.47;;;6.73;78.64
56142;BME280;42018;48.588;10.836;2023-04-26T04:17:29;96770.47;;;6.80;78.03
56142;BME280;42018;48.588;10.836;2023-04-26T04:20:14;96773.44;;;6.84;77.95
56142;BME280;42018;48.588;10.836;2023-04-26T04:23:00;96779.09;;;6.92;77.65
56142;BME280;42018;48.588;10.836;2023-04-26T04:25:48;96789.94;;;6.96;77.42
56142;BME280;42018;48.588;10.836;2023-04-26T04:28:35;96788.09;;;6.96;76.99
56142;BME280;42018;48.588;10.836;2023-04-26T04:31:21;96787.28;;;6.96;77.05
56142;BME280;42018;48.588;10.836;2023-04-26T04:34:07;96786.75;;;6.94;76.97
56142;BME280;42018;48.588;10.836;2023-04-26T04:36:53;96782.59;;;6.98;76.58
56142;BME280;42018;48.588;10.836;2023-04-26T04:39:38;96790.34;;;6.88;75.74
56142;BME280;42018;48.588;10.836;2023-04-26T04:42:24;96783.25;;;6.88;76.53
56142;BME280;42018;48.588;10.836;2023-04-26T04:45:11;96787.94;;;7.03;75.77
56142;BME280;42018;48.588;10.836;2023-04-26T04:47:56;96794.78;;;7.04;75.40
56142;BME280;42018;48.588;10.836;2023-04-26T04:50:42;96791.28;;;6.99;74.87
56142;BME280;42018;48.588;10.836;2023-04-26T04:53:27;96783.78;;;7.07;74.87
56142;BME280;42018;48.588;10.836;2023-04-26T04:56:13;96786.56;;;7.17;74.73
56142;BME280;42018;48.588;10.836;2023-04-26T04:58:59;96789.75;;;7.19;74.64
56142;BME280;42018;48.588;10.836;2023-04-26T05:01:45;96788.97;;;7.19;74.26
56142;BME280;42018;48.588;10.836;2023-04-26T05:04:30;96784.31;;;7.26;73.88
56142;BME280;42018;48.588;10.836;2023-04-26T05:07:18;96787.50;;;7.28;73.36
56142;BME280;42018;48.588;10.836;2023-04-26T05:10:03;96785.03;;;7.22;73.99
56142;BME280;42018;48.588;10.836;2023-04-26T05:12:49;96787.50;;;7.28;74.49
56142;BME280;42018;48.588;10.836;2023-04-26T05:15:34;96790.59;;;7.42;73.73
56142;BME280;42018;48.588;10.836;2023-04-26T05:18:20;96794.50;;;7.39;74.20
56142;BME280;42018;48.588;10.836;2023-04-26T05:21:05;96804.19;;;7.34;74.35
56142;BME280;42018;48.588;10.836;2023-04-26T05:23:51;96804.91;;;7.29;73.61
56142;BME280;42018;48.588;10.836;2023-04-26T05:26:36;96806.19;;;7.27;73.23
56142;BME280;42018;48.588;10.836;2023-04-26T05:29:22;96811.78;;;7.30;72.84
56142;BME280;42018;48.588;10.836;2023-04-26T05:32:07;96806.25;;;7.32;72.43
56142;BME280;42018;48.588;10.836;2023-04-26T05:34:53;96816.94;;;7.42;71.57
56142;BME280;42018;48.588;10.836;2023-04-26T05:37:38;96823.53;;;7.23;71.76
56142;BME280;42018;48.588;10.836;2023-04-26T05:40:24;96818.25;;;7.23;71.90
56142;BME280;42018;48.588;10.836;2023-04-26T05:43:10;96823.28;;;7.24;72.75
56142;BME280;42018;48.588;10.836;2023-04-26T05:46:01;96829.44;;;7.13;70.86
56142;BME280;42018;48.588;10.836;2023-04-26T05:48:45;96837.50;;;7.06;70.98
56142;BME280;42018;48.588;10.836;2023-04-26T05:51:48;96834.72;;;7.13;69.97
56142;BME280;42018;48.588;10.836;2023-04-26T05:54:34;96836.19;;;7.26;69.03
56142;BME280;42018;48.588;10.836;2023-04-26T05:57:20;96842.47;;;7.19;70.05
56142;BME280;42018;48.588;10.836;2023-04-26T06:00:06;96843.09;;;7.27;69.64
56142;BME280;42018;48.588;10.836;2023-04-26T06:02:59;96850.91;;;7.22;67.92
56142;BME280;42018;48.588;10.836;2023-04-26T06:09:52;96850.50;;;6.96;69.28
56142;BME280;42018;48.588;10.836;2023-04-26T06:12:38;96852.94;;;6.98;69.50
56142;BME280;42018;48.588;10.836;2023-04-26T06:15:23;96848.53;;;7.20;69.18
56142;BME280;42018;48.588;10.836;2023-04-26T06:18:09;96851.06;;;7.32;69.41
56142;BME280;42018;48.588;10.836;2023-04-26T06:20:55;96845.41;;;7.23;68.60
56142;BME280;42018;48.588;10.836;2023-04-26T06:23:53;96850.84;;;7.33;68.87
56142;BME280;42018;48.588;10.836;2023-04-26T06:26:39;96858.25;;;7.36;67.97
56142;BME280;42018;48.588;10.836;2023-04-26T06:29:32;96856.16;;;7.38;67.90
56142;BME280;42018;48.588;10.836;2023-04-26T06:32:18;96858.69;;;7.50;67.00
56142;BME280;42018;48.588;10.836;2023-04-26T06:35:09;96854.41;;;7.44;65.80
56142;BME280;42018;48.588;10.836;2023-04-26T06:37:55;96857.00;;;7.61;66.48
56142;BME280;42018;48.588;10.836;2023-04-26T06:40:41;96866.53;;;7.62;66.32
56142;BME280;42018;48.588;10.836;2023-04-26T06:43:45;96862.31;;;7.83;65.78
56142;BME280;42018;48.588;10.836;2023-04-26T06:46:31;96860.22;;;7.85;64.83
56142;BME280;42018;48.588;10.836;2023-04-26T06:49:17;96867.22;;;7.96;64.49
56142;BME280;42018;48.588;10.836;2023-04-26T06:52:08;96861.31;;;7.89;64.57
56142;BME280;42018;48.588;10.836;2023-04-26T06:55:01;96862.88;;;7.85;65.58
56142;BME280;42018;48.588;10.836;2023-04-26T06:57:48;96854.22;;;7.89;63.57
56142;BME280;42018;48.588;10.836;2023-04-26T07:00:37;96863.00;;;7.95;63.75
56142;BME280;42018;48.588;10.836;2023-04-26T07:03:26;96858.03;;;7.99;64.08
56142;BME280;42018;48.588;10.836;2023-04-26T07:06:29;96861.88;;;8.13;63.61
56142;BME280;42018;48.588;10.836;2023-04-26T07:09:18;96862.06;;;8.06;65.33
56142;BME280;42018;48.588;10.836;2023-04-26T07:19:42;96866.44;;;8.18;61.26
56142;BME280;42018;48.588;10.836;2023-04-26T07:22:36;96875.44;;;8.22;59.85
56142;BME280;42018;48.588;10.836;2023-04-26T07:33:00;96869.66;;;8.69;57.07
56142;BME280;42018;48.588;10.836;2023-04-26T07:35:53;96868.00;;;8.90;58.08
56142;BME280;42018;48.588;10.836;2023-04-26T07:39:05;96873.03;;;8.91;57.19
56142;BME280;42018;48.588;10.836;2023-04-26T07:41:55;96872.50;;;8.62;57.41
56142;BME280;42018;48.588;10.836;2023-04-26T07:48:11;96862.06;;;9.09;56.12
56142;BME280;42018;48.588;10.836;2023-04-26T07:51:06;96870.50;;;9.06;54.04
56142;BME280;42018;48.588;10.836;2023-04-26T07:54:30;96864.94;;;9.40;55.13
56142;BME280;42018;48.588;10.836;2023-04-26T07:57:16;96871.13;;;8.86;54.93
56142;BME280;42018;48.588;10.836;2023-04-26T08:00:07;96866.91;;;8.36;55.32
56142;BME280;42018;48.588;10.836;2023-04-26T08:03:04;96869.47;;;8.53;53.86
56142;BME280;42018;48.588;10.836;2023-04-26T08:05:49;96867.00;;;8.42;52.07
56142;BME280;42018;48.588;10.836;2023-04-26T08:08:58;96859.97;;;8.79;53.68
56142;BME280;42018;48.588;10.836;2023-04-26T08:11:44;96861.75;;;9.38;54.21
56142;BME280;42018;48.588;10.836;2023-04-26T08:15:02;96860.75;;;9.49;52.79
56142;BME280;42018;48.588;10.836;2023-04-26T08:17:52;96856.91;;;9.67;51.34
56142;BME280;42018;48.588;10.836;2023-04-26T08:20:45;96860.88;;;10.22;50.43
56142;BME280;42018;48.588;10.836;2023-04-26T08:27:21;96851.59;;;10.20;46.80
56142;BME280;42018;48.588;10.836;2023-04-26T08:34:01;96852.81;;;10.65;48.50
56142;BME280;42018;48.588;10.836;2023-04-26T08:37:23;96854.91;;;10.63;48.69
56142;BME280;42018;48.588;10.836;2023-04-26T08:40:09;96853.25;;;10.26;49.28
56142;BME280;42018;48.588;10.836;2023-04-26T08:50:49;96858.09;;;10.54;46.08
56142;BME280;42018;48.588;10.836;2023-04-26T08:54:06;96849.09;;;10.76;46.06
56142;BME280;42018;48.588;10.836;2023-04-26T08:56:58;96848.59;;;10.99;46.74
56142;BME280;42018;48.588;10.836;2023-04-26T09:03:36;96856.00;;;10.77;46.45
56142;BME280;42018;48.588;10.836;2023-04-26T09:06:23;96851.75;;;10.71;46.91
56142;BME280;42018;48.588;10.836;2023-04-26T09:09:26;96852.38;;;10.15;47.84
56142;BME280;42018;48.588;10.836;2023-04-26T09:12:14;96860.56;;;10.08;49.96
56142;BME280;42018;48.588;10.836;2023-04-26T09:15:09;96853.91;;;10.94;48.64
56142;BME280;42018;48.588;10.836;2023-04-26T09:18:20;96855.75;;;11.14;46.86
56142;BME280;42018;48.588;10.836;2023-04-26T09:21:07;96858.91;;;10.75;46.02
56142;BME280;42018;48.588;10.836;2023-04-26T09:31:49;96856.53;;;10.64;44.89
56142;BME280;42018;48.588;10.836;2023-04-26T09:35:08;96853.63;;;11.21;44.38
56142;BME280;42018;48.588;10.836;2023-04-26T09:38:01;96850.69;;;11.54;44.33
56142;BME280;42018;48.588;10.836;2023-04-26T09:40:55;96849.63;;;11.34;44.65
56142;BME280;42018;48.588;10.836;2023-04-26T09:43:43;96862.59;;;10.54;45.64
56142;BME280;42018;48.588;10.836;2023-04-26T09:46:33;96853.91;;;10.89;48.63
56142;BME280;42018;48.588;10.836;2023-04-26T09:49:19;96850.97;;;11.47;45.83
56142;BME280;42018;48.588;10.836;2023-04-26T09:52:05;96843.81;;;11.42;42.35
56142;BME280;42018;48.588;10.836;2023-04-26T09:54:53;96840.88;;;11.54;44.88
56142;BME280;42018;48.588;10.836;2023-04-26T10:01:36;96835.13;;;12.66;42.74
56142;BME280;42018;48.588;10.836;2023-04-26T10:04:30;96836.81;;;11.87;42.22
56142;BME280;42018;48.588;10.836;2023-04-26T10:07:25;96829.47;;;12.29;43.43
56142;BME280;42018;48.588;10.836;2023-04-26T10:10:11;96828.66;;;11.53;41.96
56142;BME280;42018;48.588;10.836;2023-04-26T10:12:59;96837.44;;;10.62;45.71
56142;BME280;42018;48.588;10.836;2023-04-26T10:15:46;96831.06;;;10.58;47.67
56142;BME280;42018;48.588;10.836;2023-04-26T10:18:36;96833.75;;;10.83;46.89
56142;BME280;42018;48.588;10.836;2023-04-26T10:21:28;96827.41;;;12.20;44.73
56142;BME280;42018;48.588;10.836;2023-04-26T10:24:15;96821.53;;;11.13;43.58
56142;BME280;42018;48.588;10.836;2023-04-26T10:27:02;96822.00;;;11.71;45.44
56142;BME280;42018;48.588;10.836;2023-04-26T10:39:19;96796.41;;;12.89;41.56
56142;BME280;42018;48.588;10.836;2023-04-26T10:45:37;96796.50;;;12.35;40.26
56142;BME280;42018;48.588;10.836;2023-04-26T10:51:11;96791.22;;;12.69;42.05
56142;BME280;42018;48.588;10.836;2023-04-26T10:53:57;96794.03;;;11.99;40.84
56142;BME280;42018;48.588;10.836;2023-04-26T10:59:34;96781.66;;;13.02;43.15
56142;BME280;42018;48.588;10.836;2023-04-26T11:05:37;96782.69;;;13.06;42.24
56142;BME280;42018;48.588;10.836;2023-04-26T11:11:10;96779.81;;;13.32;42.14
56142;BME280;42018;48.588;10.836;2023-04-26T11:14:00;96779.41;;;12.85;42.14
56142;BME280;42018;48.588;10.836;2023-04-26T11:16:46;96780.31;;;12.70;41.79
56142;BME280;42018;48.588;10.836;2023-04-26T11:19:31;96785.34;;;12.72;42.50
56142;BME280;42018;48.588;10.836;2023-04-26T11:22:21;96782.53;;;12.92;42.22
56142;BME280;42018;48.588;10.836;2023-04-26T11:25:13;96774.00;;;13.54;42.15
56142;BME280;42018;48.588;10.836;2023-04-26T11:27:59;96775.31;;;13.80;41.51
56142;BME280;42018;48.588;10.836;2023-04-26T11:30:48;96780.06;;;13.35;41.12
56142;BME280;42018;48.588;10.836;2023-04-26T11:33:34;96774.88;;;13.15;42.26
56142;BME280;42018;48.588;10.836;2023-04-26T11:36:21;96766.75;;;13.01;42.59
56142;BME280;42018;48.588;10.836;2023-04-26T11:39:09;96773.81;;;13.16;42.12
56142;BME280;42018;48.588;10.836;2023-04-26T11:42:10;96774.97;;;13.39;42.03
56142;BME280;42018;48.588;10.836;2023-04-26T11:44:56;96774.75;;;13.59;40.73
56142;BME280;42018;48.588;10.836;2023-04-26T11:47:46;96778.41;;;13.39;41.56
56142;BME280;42018;48.588;10.836;2023-04-26T11:50:33;96783.34;;;13.75;40.72
56142;BME280;42018;48.588;10.836;2023-04-26T11:53:20;96777.69;;;13.82;41.18
56142;BME280;42018;48.588;10.836;2023-04-26T11:56:17;96774.78;;;14.02;39.38
56142;BME280;42018;48.588;10.836;2023-04-26T11:59:03;96770.66;;;13.91;38.30
56142;BME280;42018;48.588;10.836;2023-04-26T12:01:49;96771.50;;;13.38;40.44
56142;BME280;42018;48.588;10.836;2023-04-26T12:04:36;96778.56;;;13.24;39.91
56142;BME280;42018;48.588;10.836;2023-04-26T12:07:23;96774.16;;;13.09;41.24
56142;BME280;42018;48.588;10.836;2023-04-26T12:10:19;96775.66;;;13.50;41.75
56142;BME280;42018;48.588;10.836;2023-04-26T12:13:05;96766.75;;;13.35;41.55
56142;BME280;42018;48.588;10.836;2023-04-26T12:15:50;96765.84;;;13.69;40.35
56142;BME280;42018;48.588;10.836;2023-04-26T12:18:36;96765.13;;;13.63;40.93
56142;BME280;42018;48.588;10.836;2023-04-26T12:21:22;96749.38;;;13.67;41.00
56142;BME280;42018;48.588;10.836;2023-04-26T12:24:25;96758.34;;;13.95;41.48
56142;BME280;42018;48.588;10.836;2023-04-26T12:27:19;96759.88;;;14.20;40.28
56142;BME280;42018;48.588;10.836;2023-04-26T12:30:06;96757.31;;;14.48;39.32
56142;BME280;42018;48.588;10.836;2023-04-26T12:32:51;96756.25;;;13.92;38.64
56142;BME280;42018;48.588;10.836;2023-04-26T12:35:36;96756.03;;;14.26;40.05
56142;BME280;42018;48.588;10.836;2023-04-26T12:38:22;96746.66;;;14.48;38.25
56142;BME280;42018;48.588;10.836;2023-04-26T12:41:07;96750.09;;;14.34;39.02
56142;BME280;42018;48.588;10.836;2023-04-26T12:43:53;96746.13;;;14.13;38.77
56142;BME280;42018;48.588;10.836;2023-04-26T12:46:38;96743.22;;;14.28;39.38
56142;BME280;42018;48.588;10.836;2023-04-26T12:49:23;96735.50;;;14.83;38.62
56142;BME280;42018;48.588;10.836;2023-04-26T12:52:11;96735.50;;;14.65;38.92
56142;BME280;42018;48.588;10.836;2023-04-26T12:54:57;96727.66;;;14.35;37.12
56142;BME280;42018;48.588;10.836;2023-04-26T12:57:43;96725.66;;;14.08;38.07
56142;BME280;42018;48.588;10.836;2023-04-26T13:00:29;96733.41;;;12.56;39.76
56142;BME280;42018;48.588;10.836;2023-04-26T13:03:14;96717.31;;;13.29;41.02
56142;BME280;42018;48.588;10.836;2023-04-26T13:06:00;96717.09;;;13.50;40.59
56142;BME280;42018;48.588;10.836;2023-04-26T13:08:45;96711.53;;;13.89;40.20
56142;BME280;42018;48.588;10.836;2023-04-26T13:11:31;96711.81;;;14.25;39.58
56142;BME280;42018;48.588;10.836;2023-04-26T13:14:16;96712.69;;;14.21;38.20
56142;BME280;42018;48.588;10.836;2023-04-26T13:17:01;96719.16;;;14.33;37.74
56142;BME280;42018;48.588;10.836;2023-04-26T13:19:49;96713.19;;;14.23;37.78
56142;BME280;42018;48.588;10.836;2023-04-26T13:22:34;96704.19;;;14.56;38.51
56142;BME280;42018;48.588;10.836;2023-04-26T13:25:20;96703.16;;;14.33;37.34
56142;BME280;42018;48.588;10.836;2023-04-26T13:28:06;96705.91;;;14.66;37.77
56142;BME280;42018;48.588;10.836;2023-04-26T13:30:51;96705.31;;;14.69;37.64
56142;BME280;42018;48.588;10.836;2023-04-26T13:33:37;96699.66;;;15.17;36.38
56142;BME280;42018;48.588;10.836;2023-04-26T13:36:22;96703.44;;;15.30;36.60
56142;BME280;42018;48.588;10.836;2023-04-26T13:39:07;96707.19;;;15.43;35.08
56142;BME280;42018;48.588;10.836;2023-04-26T13:41:53;96702.63;;;15.29;35.49
56142;BME280;42018;48.588;10.836;2023-04-26T13:44:39;96704.13;;;15.36;36.00
56142;BME280;42018;48.588;10.836;2023-04-26T13:47:25;96706.88;;;15.58;35.35
56142;BME280;42018;48.588;10.836;2023-04-26T13:50:10;96702.81;;;14.92;35.08
56142;BME280;42018;48.588;10.836;2023-04-26T13:52:55;96703.53;;;15.39;34.92
56142;BME280;42018;48.588;10.836;2023-04-26T13:55:41;96702.69;;;14.97;35.90
56142;BME280;42018;48.588;10.836;2023-04-26T13:58:26;96707.63;;;14.57;36.68
56142;BME280;42018;48.588;10.836;2023-04-26T14:01:11;96703.03;;;14.25;37.17
56142;BME280;42018;48.588;10.836;2023-04-26T14:03:58;96696.47;;;14.55;37.52
56142;BME280;42018;48.588;10.836;2023-04-26T14:06:43;96697.63;;;14.30;37.21
56142;BME280;42018;48.588;10.836;2023-04-26T14:09:28;96698.81;;;14.24;37.42
56142;BME280;42018;48.588;10.836;2023-04-26T14:12:14;96699.81;;;14.28;36.05
56142;BME280;42018;48.588;10.836;2023-04-26T14:14:59;96701.34;;;14.48;36.86
56142;BME280;42018;48.588;10.836;2023-04-26T14:17:48;96695.72;;;14.17;38.67
56142;BME280;42018;48.588;10.836;2023-04-26T14:20:34;96703.16;;;14.33;37.89
56142;BME280;42018;48.588;10.836;2023-04-26T14:23:20;96697.81;;;14.71;37.75
56142;BME280;42018;48.588;10.836;2023-04-26T14:26:05;96691.16;;;15.01;36.69
56142;BME280;42018;48.588;10.836;2023-04-26T14:28:51;96701.72;;;14.93;36.79
56142;BME280;42018;48.588;10.836;2023-04-26T14:31:36;96697.22;;;15.35;36.03
56142;BME280;42018;48.588;10.836;2023-04-26T14:34:21;96698.09;;;15.71;36.30
56142;BME280;42018;48.588;10.836;2023-04-26T14:37:07;96695.53;;;15.52;35.37
56142;BME280;42018;48.588;10.836;2023-04-26T14:39:53;96700.22;;;14.54;36.17
56142;BME280;42018;48.588;10.836;2023-04-26T14:42:38;96700.84;;;14.46;36.79
56142;BME280;42018;48.588;10.836;2023-04-26T14:45:29;96691.94;;;14.88;36.47
56142;BME280;42018;48.588;10.836;2023-04-26T14:48:17;96683.44;;;15.00;35.72
56142;BME280;42018;48.588;10.836;2023-04-26T14:51:03;96675.25;;;15.38;34.92
56142;BME280;42018;48.588;10.836;2023-04-26T14:53:48;96671.19;;;15.40;34.65
56142;BME280;42018;48.588;10.836;2023-04-26T14:56:34;96681.72;;;14.90;37.18
56142;BME280;42018;48.588;10.836;2023-04-26T14:59:19;96676.38;;;14.63;36.85
56142;BME280;42018;48.588;10.836;2023-04-26T15:02:05;96685.72;;;14.60;37.88
56142;BME280;42018;48.588;10.836;2023-04-26T15:04:51;96679.53;;;14.46;36.57
56142;BME280;42018;48.588;10.836;2023-04-26T15:07:37;96678.13;;;13.97;35.66
56142;BME280;42018;48.588;10.836;2023-04-26T15:10:22;96678.94;;;14.16;36.62
56142;BME280;42018;48.588;10.836;2023-04-26T15:13:08;96675.53;;;14.10;37.75
56142;BME280;42018;48.588;10.836;2023-04-26T15:15:55;96676.28;;;14.16;37.67
56142;BME280;42018;48.588;10.836;2023-04-26T15:18:43;96671.94;;;14.20;37.20
56142;BME280;42018;48.588;10.836;2023-04-26T15:21:29;96671.56;;;14.27;37.88
56142;BME280;42018;48.588;10.836;2023-04-26T15:24:16;96670.44;;;14.47;37.73
56142;BME280;42018;48.588;10.836;2023-04-26T15:27:02;96664.31;;;14.46;37.14
56142;BME280;42018;48.588;10.836;2023-04-26T15:29:48;96665.53;;;14.02;36.52
56142;BME280;42018;48.588;10.836;2023-04-26T15:32:34;96668.22;;;14.02;37.67
56142;BME280;42018;48.588;10.836;2023-04-26T15:35:30;96673.94;;;13.90;38.12
56142;BME280;42018;48.588;10.836;2023-04-26T15:41:48;96682.09;;;13.80;38.35
56142;BME280;42018;48.588;10.836;2023-04-26T15:45:03;96670.22;;;13.92;37.97
56142;BME280;42018;48.588;10.836;2023-04-26T15:51:44;96672.09;;;13.91;39.08
56142;BME280;42018;48.588;10.836;2023-04-26T15:54:30;96671.59;;;13.89;39.40
56142;BME280;42018;48.588;10.836;2023-04-26T15:57:14;96674.56;;;13.87;38.12
56142;BME280;42018;48.588;10.836;2023-04-26T16:00:08;96674.16;;;13.94;38.11
56142;BME280;42018;48.588;10.836;2023-04-26T16:02:55;96682.22;;;14.08;38.76
56142;BME280;42018;48.588;10.836;2023-04-26T16:06:02;96672.81;;;13.78;37.91
56142;BME280;42018;48.588;10.836;2023-04-26T16:09:00;96679.72;;;13.79;38.17